Time;durP1;ratioP1;P1;durP2;ratioP2;P2;SDS_P1;SDS_P2;PMS_P1;PMS_P2;Temp;Humidity;BMP_temperature;BMP_pressure;BME280_temperature;BME280_humidity;BME280_pressure;Samples;Min_cycle;Max_cycle;Signal;HPM_P1;HPM_P2
2023/04/05 00:01:52;;;;;;;3.37;1.20;;;3.60;81.90;;;;;;5029767;28;20724;-75
2023/04/05 00:04:19;;;;;;;2.67;0.97;;;3.50;82.40;;;;;;5031557;28;20045;-75
2023/04/05 00:06:51;;;;;;;3.33;1.20;;;3.50;82.20;;;;;;5034240;28;20020;-74
2023/04/05 00:09:22;;;;;;;2.73;0.83;;;3.50;82.40;;;;;;5032055;28;20041;-75
2023/04/05 00:11:48;;;;;;;2.57;1.10;;;3.50;82.40;;;;;;5030755;28;20526;-74
2023/04/05 00:14:14;;;;;;;2.20;0.90;;;3.40;82.40;;;;;;5014751;28;20036;-74
2023/04/05 00:16:41;;;;;;;1.87;0.70;;;3.40;82.50;;;;;;5002184;28;20037;-75
2023/04/05 00:19:09;;;;;;;2.90;1.20;;;3.40;82.70;;;;;;5037038;28;20032;-74
2023/04/05 00:21:38;;;;;;;3.83;1.63;;;3.40;82.80;;;;;;5031941;28;20044;-74
2023/04/05 00:24:04;;;;;;;3.60;1.13;;;3.30;82.80;;;;;;5029010;28;20047;-75
2023/04/05 00:26:31;;;;;;;2.77;1.00;;;3.30;83.00;;;;;;5012873;28;20032;-74
2023/04/05 00:28:57;;;;;;;2.17;0.93;;;3.30;83.10;;;;;;5002374;28;20032;-75
2023/04/05 00:31:24;;;;;;;2.87;1.00;;;3.30;83.10;;;;;;5010958;28;20527;-75
2023/04/05 00:33:51;;;;;;;2.70;1.20;;;3.30;83.20;;;;;;5008648;28;20368;-74
2023/04/05 00:36:20;;;;;;;3.87;1.30;;;3.20;83.20;;;;;;5038738;28;20043;-74
2023/04/05 00:38:48;;;;;;;3.83;1.13;;;3.20;83.40;;;;;;5016352;28;20033;-74
2023/04/05 00:41:15;;;;;;;3.43;1.57;;;3.20;83.50;;;;;;5013217;28;20048;-74
2023/04/05 00:43:41;;;;;;;3.60;1.50;;;3.10;83.80;;;;;;4993621;28;20047;-75
2023/04/05 00:46:08;;;;;;;3.30;1.10;;;3.10;83.90;;;;;;4998677;28;20044;-75
2023/04/05 00:48:36;;;;;;;4.83;1.40;;;3.10;83.90;;;;;;5015821;28;20063;-74
2023/04/05 00:51:03;;;;;;;2.87;1.07;;;3.10;84.00;;;;;;4981059;28;20067;-75
2023/04/05 00:53:30;;;;;;;3.33;1.57;;;3.10;84.10;;;;;;4978316;28;20024;-74
2023/04/05 00:55:57;;;;;;;3.73;1.30;;;3.00;84.30;;;;;;5034924;28;20624;-75
2023/04/05 00:58:23;;;;;;;2.73;1.53;;;3.00;84.50;;;;;;5017492;28;20044;-75
2023/04/05 01:01:12;;;;;;;3.77;1.83;;;3.00;84.80;;;;;;5014986;28;20029;-74
2023/04/05 01:03:45;;;;;;;2.77;1.30;;;3.00;84.80;;;;;;5008899;28;20040;-74
2023/04/05 01:06:24;;;;;;;;;;;3.00;84.90;;;;;;4983419;28;20088;-74
2023/04/05 01:09:16;;;;;;;2.90;1.17;;;2.90;84.90;;;;;;5034059;28;19916;-74
2023/04/05 01:11:46;;;;;;;5.28;1.00;;;2.90;84.90;;;;;;5010054;28;20537;-75
2023/04/05 01:14:12;;;;;;;4.23;1.70;;;2.80;85.00;;;;;;4995808;28;20052;-74
2023/04/05 01:16:39;;;;;;;4.40;1.10;;;2.80;85.40;;;;;;5002185;28;21009;-74
2023/04/05 01:19:08;;;;;;;3.00;1.17;;;2.80;85.50;;;;;;5020898;28;20021;-74
2023/04/05 01:21:37;;;;;;;3.03;1.37;;;2.80;85.60;;;;;;5017018;28;20407;-74
2023/04/05 01:24:08;;;;;;;3.03;1.07;;;2.80;85.80;;;;;;5015199;28;20517;-74
2023/04/05 01:27:02;;;;;;;3.40;1.00;;;2.80;85.90;;;;;;5020999;28;20486;-74
2023/04/05 01:29:41;;;;;;;3.13;1.07;;;2.70;86.10;;;;;;5036413;28;20051;-75
2023/04/05 01:32:14;;;;;;;3.00;1.00;;;2.70;86.20;;;;;;5029099;28;20033;-74
2023/04/05 01:34:46;;;;;;;3.30;1.37;;;2.70;86.30;;;;;;5018560;28;20032;-75
2023/04/05 01:37:17;;;;;;;2.80;1.10;;;2.70;86.60;;;;;;5003506;28;20577;-75
2023/04/05 01:39:46;;;;;;;2.60;1.40;;;2.60;86.50;;;;;;5006015;28;20044;-74
2023/04/05 01:42:12;;;;;;;2.90;1.37;;;2.60;86.70;;;;;;5031519;28;20567;-73
2023/04/05 01:44:39;;;;;;;3.93;1.93;;;2.60;86.90;;;;;;5036512;28;21022;-75
2023/04/05 01:47:06;;;;;;;2.63;1.10;;;2.50;87.20;;;;;;5018879;28;20845;-74
2023/04/05 01:49:32;;;;;;;3.10;1.40;;;2.50;87.40;;;;;;5014625;28;20483;-75
2023/04/05 01:51:58;;;;;;;2.93;1.50;;;2.40;87.60;;;;;;5010438;28;20040;-74
2023/04/05 01:54:26;;;;;;;3.20;1.07;;;2.40;87.80;;;;;;5015183;28;20047;-74
2023/04/05 01:56:53;;;;;;;2.00;1.00;;;2.30;88.00;;;;;;5037810;28;20052;-74
2023/04/05 01:59:19;;;;;;;3.40;1.00;;;2.30;88.10;;;;;;5020870;28;20418;-74
2023/04/05 02:01:46;;;;;;;2.77;1.33;;;2.30;88.30;;;;;;5016393;28;20576;-74
2023/04/05 02:04:12;;;;;;;2.70;1.20;;;2.30;88.50;;;;;;5034425;28;20051;-75
2023/04/05 02:06:38;;;;;;;2.90;1.23;;;2.20;88.60;;;;;;5036334;28;20025;-75
2023/04/05 02:09:04;;;;;;;2.50;1.00;;;2.20;88.70;;;;;;5015158;28;20041;-74
2023/04/05 02:11:31;;;;;;;3.03;1.10;;;2.20;88.90;;;;;;5014524;28;20040;-74
2023/04/05 02:13:58;;;;;;;2.83;1.20;;;2.20;89.10;;;;;;5012166;28;20043;-75
2023/04/05 02:16:25;;;;;;;3.27;1.27;;;2.20;89.30;;;;;;5019073;28;20367;-75
2023/04/05 02:18:56;;;;;;;2.93;1.27;;;2.20;89.40;;;;;;5022059;28;20033;-75
2023/04/05 02:21:22;;;;;;;2.77;1.13;;;2.10;89.50;;;;;;5018285;28;20041;-75
2023/04/05 02:23:49;;;;;;;2.40;1.17;;;2.10;89.60;;;;;;5014592;28;20040;-74
2023/04/05 02:26:17;;;;;;;2.77;1.20;;;2.10;89.80;;;;;;5036913;28;20109;-74
2023/04/05 02:28:43;;;;;;;4.33;1.30;;;2.10;89.90;;;;;;5014518;28;21038;-73
2023/04/05 02:31:11;;;;;;;2.63;1.33;;;2.00;90.00;;;;;;5033318;28;20032;-74
2023/04/05 02:33:38;;;;;;;3.70;1.33;;;2.00;90.10;;;;;;5031291;28;20037;-73
2023/04/05 02:36:06;;;;;;;3.17;1.37;;;2.00;90.20;;;;;;5035983;28;20043;-74
2023/04/05 02:38:33;;;;;;;2.67;1.20;;;2.00;90.30;;;;;;5017927;28;20036;-73
2023/04/05 02:41:00;;;;;;;3.40;1.47;;;2.00;90.30;;;;;;5038500;28;20468;-74
2023/04/05 02:43:26;;;;;;;2.50;1.10;;;2.00;90.50;;;;;;4984789;28;20067;-74
2023/04/05 02:45:52;;;;;;;3.70;1.30;;;1.90;90.50;;;;;;5016845;28;20028;-73
2023/04/05 02:48:19;;;;;;;3.43;1.57;;;1.90;90.60;;;;;;4999508;28;20032;-73
2023/04/05 02:50:50;;;;;;;3.40;1.87;;;1.90;90.80;;;;;;5012040;28;20098;-72
2023/04/05 02:53:17;;;;;;;4.17;1.50;;;1.90;90.90;;;;;;5012491;28;20040;-74
2023/04/05 02:55:52;;;;;;;4.83;1.50;;;1.90;91.00;;;;;;4999598;28;20032;-73
2023/04/05 02:58:18;;;;;;;2.70;1.13;;;1.80;91.10;;;;;;5000756;28;20507;-73
2023/04/05 03:00:49;;;;;;;3.47;1.30;;;1.80;91.20;;;;;;5001081;28;20407;-73
2023/04/05 03:03:19;;;;;;;4.83;1.40;;;1.70;91.20;;;;;;4999285;28;20474;-73
2023/04/05 03:05:47;;;;;;;3.00;1.33;;;1.80;91.40;;;;;;5016164;28;20036;-73
2023/04/05 03:08:18;;;;;;;2.77;1.13;;;1.70;91.40;;;;;;5015170;28;20048;-73
2023/04/05 03:10:52;;;;;;;3.57;1.60;;;1.70;91.50;;;;;;4999602;28;20036;-74
2023/04/05 03:13:19;;;;;;;3.13;1.37;;;1.70;91.90;;;;;;5012229;28;20068;-73
2023/04/05 03:15:47;;;;;;;3.67;1.67;;;1.70;91.70;;;;;;5018559;28;20036;-73
2023/04/05 03:18:16;;;;;;;2.40;1.40;;;1.70;91.80;;;;;;5002337;28;20040;-74
2023/04/05 03:20:46;;;;;;;3.80;1.37;;;1.60;91.90;;;;;;4997904;28;20471;-74
2023/04/05 03:23:17;;;;;;;2.40;1.33;;;1.60;92.00;;;;;;4987273;28;20395;-73
2023/04/05 03:25:46;;;;;;;2.90;1.10;;;1.60;92.10;;;;;;5016685;28;20165;-74
2023/04/05 03:28:14;;;;;;;3.27;1.80;;;1.60;92.20;;;;;;5016311;28;20040;-73
2023/04/05 03:30:44;;;;;;;2.30;1.00;;;1.60;92.30;;;;;;5012164;28;20044;-73
2023/04/05 03:33:17;;;;;;;;;;;1.50;92.40;;;;;;5011667;28;20036;-74
2023/04/05 03:35:46;;;;;;;3.17;1.07;;;1.50;92.50;;;;;;5015868;28;20287;-74
2023/04/05 03:38:13;;;;;;;3.87;1.00;;;1.50;92.40;;;;;;5015535;28;20051;-74
2023/04/05 03:40:48;;;;;;;3.33;1.23;;;1.50;92.50;;;;;;5001773;28;21208;-73
2023/04/05 03:43:15;;;;;;;3.23;1.10;;;1.50;92.60;;;;;;4996510;28;20055;-73
2023/04/05 03:45:41;;;;;;;4.97;1.23;;;1.40;92.70;;;;;;5017230;28;20510;-75
2023/04/05 03:48:08;;;;;;;2.20;1.13;;;1.40;92.80;;;;;;4997513;28;20044;-75
2023/04/05 03:50:34;;;;;;;3.33;1.03;;;1.40;92.90;;;;;;4995775;28;20068;-75
2023/04/05 03:53:00;;;;;;;2.40;1.17;;;1.40;93.00;;;;;;4996862;28;20037;-74
2023/04/05 03:55:28;;;;;;;5.60;1.13;;;1.40;93.40;;;;;;5032505;28;20446;-75
2023/04/05 03:57:56;;;;;;;4.77;1.90;;;1.40;93.20;;;;;;5015062;28;20401;-73
2023/04/05 04:00:28;;;;;;;3.60;1.60;;;1.30;93.40;;;;;;5011716;28;20604;-73
2023/04/05 04:03:15;;;;;;;3.33;1.10;;;1.30;93.60;;;;;;5033273;28;20044;-75
2023/04/05 04:05:44;;;;;;;3.20;1.30;;;1.30;93.70;;;;;;5002029;28;20039;-73
2023/04/05 04:08:12;;;;;;;2.80;1.30;;;1.30;93.80;;;;;;5014258;28;20040;-74
2023/04/05 04:10:38;;;;;;;3.10;1.47;;;1.20;93.90;;;;;;5012011;28;20040;-74
2023/04/05 04:13:14;;;;;;;2.87;1.40;;;1.20;94.30;;;;;;4993410;28;20053;-74
2023/04/05 04:15:41;;;;;;;2.87;1.10;;;1.20;94.10;;;;;;4997571;28;20032;-74
2023/04/05 04:18:35;;;;;;;3.20;1.30;;;1.20;94.30;;;;;;5014849;28;20029;-74
2023/04/05 04:21:31;;;;;;;2.50;1.00;;;1.20;94.30;;;;;;5029782;28;20415;-74
2023/04/05 04:24:17;;;;;;;3.33;1.50;;;1.10;94.40;;;;;;4987648;28;20036;-74
2023/04/05 04:27:05;;;;;;;3.60;1.50;;;1.10;94.50;;;;;;5035934;28;20044;-73
2023/04/05 04:30:02;;;;;;;2.73;1.53;;;1.10;94.60;;;;;;5014989;28;20024;-73
2023/04/05 04:32:50;;;;;;;3.73;1.30;;;1.10;94.80;;;;;;5009845;28;20031;-74
2023/04/05 04:35:32;;;;;;;4.93;1.43;;;1.10;94.90;;;;;;5028395;28;20033;-74
2023/04/05 04:38:19;;;;;;;3.23;1.30;;;1.00;95.00;;;;;;4997706;28;20040;-74
2023/04/05 04:41:09;;;;;;;3.13;1.60;;;1.00;95.00;;;;;;5017468;28;20612;-74
2023/04/05 04:43:57;;;;;;;3.80;1.70;;;1.00;95.10;;;;;;5022636;28;20079;-73
2023/04/05 04:46:26;;;;;;;4.60;1.33;;;1.00;95.20;;;;;;5037792;28;20653;-73
2023/04/05 04:49:12;;;;;;;3.97;1.10;;;0.90;95.30;;;;;;4994945;28;20048;-73
2023/04/05 04:51:44;;;;;;;2.70;1.33;;;0.90;95.40;;;;;;4996137;28;20898;-74
2023/04/05 04:54:12;;;;;;;3.27;1.37;;;0.90;95.60;;;;;;4996318;28;20040;-74
2023/04/05 04:56:38;;;;;;;2.70;1.43;;;0.90;95.70;;;;;;5002990;28;20820;-74
2023/04/05 04:59:04;;;;;;;4.37;1.17;;;0.90;95.80;;;;;;5017632;28;21403;-76
2023/04/05 05:01:32;;;;;;;3.57;2.07;;;0.90;95.90;;;;;;5018288;28;20059;-74
2023/04/05 05:03:59;;;;;;;3.13;1.53;;;0.90;96.00;;;;;;5015341;28;20067;-75
2023/04/05 05:06:31;;;;;;;5.20;1.30;;;0.90;96.10;;;;;;5019896;28;20143;-74
2023/04/05 05:08:57;;;;;;;3.23;1.47;;;0.90;96.20;;;;;;5036384;28;20620;-74
2023/04/05 05:11:27;;;;;;;4.87;1.77;;;0.90;96.30;;;;;;5001068;28;20032;-74
2023/04/05 05:13:54;;;;;;;4.47;2.10;;;0.90;96.40;;;;;;5030659;28;20383;-74
2023/04/05 05:16:23;;;;;;;4.43;2.33;;;0.90;96.50;;;;;;5017622;28;20036;-76
2023/04/05 05:18:50;;;;;;;7.50;3.80;;;0.90;96.50;;;;;;5035605;28;20028;-77
2023/04/05 05:21:17;;;;;;;3.80;2.03;;;0.90;96.60;;;;;;4985895;28;20051;-76
2023/04/05 05:23:50;;;;;;;4.23;2.20;;;0.90;96.70;;;;;;4999823;28;20044;-75
2023/04/05 05:26:16;;;;;;;5.70;2.83;;;0.90;96.80;;;;;;5020561;28;20422;-75
2023/04/05 05:28:44;;;;;;;5.37;2.27;;;1.00;96.90;;;;;;5038113;28;20207;-74
2023/04/05 05:31:11;;;;;;;3.83;2.10;;;1.10;97.00;;;;;;5033621;28;20047;-74
2023/04/05 05:33:38;;;;;;;3.63;2.27;;;1.10;97.00;;;;;;5012214;28;20033;-75
2023/04/05 05:36:04;;;;;;;21.33;13.30;;;1.20;97.10;;;;;;5016087;28;20037;-73
2023/04/05 05:38:31;;;;;;;12.93;6.40;;;1.20;97.10;;;;;;5034307;28;20036;-74
2023/04/05 05:40:57;;;;;;;8.63;3.70;;;1.30;97.20;;;;;;5016049;28;20328;-74
2023/04/05 05:43:23;;;;;;;5.67;2.80;;;1.40;97.30;;;;;;5037102;28;20040;-74
2023/04/05 05:45:50;;;;;;;6.87;2.70;;;1.50;97.30;;;;;;5005472;28;20045;-74
2023/04/05 05:48:16;;;;;;;3.40;1.80;;;1.50;97.30;;;;;;5039635;28;20272;-75
2023/04/05 05:50:43;;;;;;;4.60;2.30;;;1.60;97.40;;;;;;4997744;28;20040;-74
2023/04/05 05:53:10;;;;;;;4.73;1.60;;;1.70;97.40;;;;;;5032945;28;20400;-73
2023/04/05 05:55:36;;;;;;;2.83;1.77;;;1.80;97.50;;;;;;5015785;28;20046;-74
2023/04/05 05:58:02;;;;;;;4.03;2.40;;;1.90;97.50;;;;;;5037454;28;20044;-74
2023/04/05 06:00:28;;;;;;;3.93;2.10;;;2.10;97.50;;;;;;4997551;28;20056;-74
2023/04/05 06:02:55;;;;;;;6.90;2.33;;;2.20;97.50;;;;;;5032962;28;20033;-74
2023/04/05 06:05:21;;;;;;;3.50;2.00;;;2.40;97.50;;;;;;5003953;28;20479;-73
2023/04/05 06:07:47;;;;;;;3.63;1.70;;;2.60;97.40;;;;;;5005130;28;20487;-73
2023/04/05 06:10:14;;;;;;;4.03;2.00;;;2.80;97.40;;;;;;5033741;28;20499;-73
2023/04/05 06:12:40;;;;;;;5.70;2.57;;;3.00;97.40;;;;;;5011568;28;20043;-73
2023/04/05 06:15:07;;;;;;;3.50;1.30;;;3.20;97.30;;;;;;5036803;28;20387;-74
2023/04/05 06:17:40;;;;;;;5.33;2.93;;;3.30;97.30;;;;;;5014767;28;20036;-73
2023/04/05 06:20:10;;;;;;;5.13;2.90;;;3.50;97.30;;;;;;5011353;28;20075;-73
2023/04/05 06:22:40;;;;;;;4.30;2.70;;;3.70;97.30;;;;;;5012488;28;20063;-73
2023/04/05 06:25:07;;;;;;;3.40;2.20;;;3.90;97.20;;;;;;5020167;28;20612;-73
2023/04/05 06:27:34;;;;;;;4.33;2.70;;;4.10;97.10;;;;;;5039995;28;20037;-73
2023/04/05 06:30:00;;;;;;;5.10;2.50;;;4.20;97.00;;;;;;5033616;28;20029;-73
2023/04/05 06:32:26;;;;;;;6.33;2.43;;;4.40;97.00;;;;;;5010635;28;20043;-73
2023/04/05 06:34:53;;;;;;;4.03;2.70;;;4.60;97.00;;;;;;5015285;28;20039;-73
2023/04/05 06:37:19;;;;;;;6.00;2.80;;;4.70;96.80;;;;;;5016997;28;20901;-73
2023/04/05 06:39:45;;;;;;;5.10;2.10;;;4.80;96.60;;;;;;5015871;28;20036;-73
2023/04/05 06:42:11;;;;;;;6.90;3.07;;;4.90;96.60;;;;;;4994769;28;20043;-73
2023/04/05 06:44:44;;;;;;;5.18;3.17;;;5.10;96.50;;;;;;5021023;28;20036;-74
2023/04/05 06:47:11;;;;;;;4.57;2.63;;;5.20;96.30;;;;;;5039095;28;20588;-73
2023/04/05 06:49:37;;;;;;;5.97;3.47;;;5.30;96.10;;;;;;5018196;28;20037;-73
2023/04/05 06:52:05;;;;;;;8.07;3.57;;;5.40;95.70;;;;;;4995587;28;20045;-73
2023/04/05 06:54:33;;;;;;;6.93;3.43;;;5.40;95.50;;;;;;5014596;28;20379;-73
2023/04/05 06:56:59;;;;;;;7.47;3.50;;;5.50;95.30;;;;;;5036554;28;20045;-73
2023/04/05 06:59:28;;;;;;;7.07;2.97;;;5.50;95.10;;;;;;5015334;28;20016;-73
2023/04/05 07:01:55;;;;;;;7.03;4.10;;;5.60;95.10;;;;;;5011537;28;20903;-73
2023/04/05 07:04:21;;;;;;;4.67;2.53;;;5.60;94.80;;;;;;5016939;28;20039;-74
2023/04/05 07:06:48;;;;;;;9.27;3.87;;;5.70;94.80;;;;;;5005079;28;20047;-74
2023/04/05 07:09:14;;;;;;;5.83;3.70;;;5.80;94.80;;;;;;5038454;28;20040;-74
2023/04/05 07:11:40;;;;;;;5.43;2.47;;;5.90;94.70;;;;;;5034481;28;20032;-74
2023/04/05 07:14:07;;;;;;;7.43;3.03;;;6.10;94.60;;;;;;5010683;28;20384;-74
2023/04/05 07:16:33;;;;;;;6.33;3.47;;;6.20;94.50;;;;;;4997360;28;20032;-73
2023/04/05 07:18:59;;;;;;;6.77;3.23;;;6.30;94.50;;;;;;5014423;28;20024;-73
2023/04/05 07:21:26;;;;;;;5.07;2.80;;;6.40;94.40;;;;;;4997834;28;20063;-74
2023/04/05 07:23:54;;;;;;;5.23;3.20;;;6.60;94.40;;;;;;4991800;28;20484;-73
2023/04/05 07:26:21;;;;;;;4.63;2.90;;;6.70;93.90;;;;;;5019071;28;20041;-74
2023/04/05 07:28:48;;;;;;;9.17;3.30;;;6.70;93.40;;;;;;5019377;28;20036;-73
2023/04/05 07:31:15;;;;;;;5.03;2.53;;;6.70;93.10;;;;;;5015348;28;20048;-73
2023/04/05 07:33:41;;;;;;;5.20;2.63;;;6.80;93.10;;;;;;5029964;28;20032;-73
2023/04/05 07:36:08;;;;;;;3.50;2.37;;;6.90;93.30;;;;;;5033844;28;20040;-73
2023/04/05 07:38:34;;;;;;;6.73;3.13;;;7.10;93.20;;;;;;5013689;28;20396;-73
2023/04/05 07:41:00;;;;;;;5.28;3.00;;;7.20;93.00;;;;;;5032312;28;20448;-74
2023/04/05 07:43:27;;;;;;;7.18;3.17;;;7.40;92.90;;;;;;5028094;28;20478;-73
2023/04/05 07:46:01;;;;;;;6.03;3.10;;;7.40;92.50;;;;;;5036191;28;20538;-73
2023/04/05 07:48:27;;;;;;;5.50;2.30;;;7.50;92.50;;;;;;5016928;28;20329;-73
2023/04/05 07:50:53;;;;;;;4.07;2.33;;;7.70;92.50;;;;;;5000545;28;22859;-73
2023/04/05 07:53:20;;;;;;;4.65;2.67;;;7.80;92.50;;;;;;5008806;28;20040;-73
2023/04/05 07:55:46;;;;;;;5.85;2.20;;;8.00;92.00;;;;;;5034064;28;20066;-73
2023/04/05 07:58:13;;;;;;;5.50;2.15;;;8.00;91.70;;;;;;5033523;28;20032;-73
2023/04/05 08:00:39;;;;;;;6.65;3.20;;;8.20;91.60;;;;;;5030233;28;20944;-74
2023/04/05 08:03:06;;;;;;;4.43;2.30;;;8.20;91.50;;;;;;5008764;28;20039;-74
2023/04/05 08:05:32;;;;;;;5.38;3.30;;;8.40;91.10;;;;;;5036482;28;20024;-74
2023/04/05 08:07:58;;;;;;;4.68;2.40;;;8.40;90.80;;;;;;5018147;28;20372;-74
2023/04/05 08:10:25;;;;;;;4.43;2.60;;;8.40;90.20;;;;;;5035988;28;20043;-73
2023/04/05 08:12:52;;;;;;;6.97;2.95;;;8.40;90.10;;;;;;5029488;28;20044;-73
2023/04/05 08:15:18;;;;;;;5.70;2.30;;;8.50;89.40;;;;;;5033358;28;20035;-73
2023/04/05 08:17:45;;;;;;;4.93;2.35;;;8.50;89.40;;;;;;5033446;28;20645;-74
2023/04/05 08:20:11;;;;;;;4.68;2.45;;;8.60;89.30;;;;;;5030685;28;20099;-73
2023/04/05 08:22:38;;;;;;;6.80;2.50;;;8.70;88.90;;;;;;5028836;28;20641;-74
2023/04/05 08:25:05;;;;;;;5.40;2.60;;;8.80;88.30;;;;;;4997639;28;20048;-73
2023/04/05 08:27:31;;;;;;;7.05;2.97;;;8.80;87.20;;;;;;5017829;28;20037;-73
2023/04/05 08:29:57;;;;;;;4.63;2.65;;;8.80;87.00;;;;;;5038883;28;20040;-73
2023/04/05 08:32:23;;;;;;;3.75;2.08;;;8.90;86.20;;;;;;5012719;28;20044;-73
2023/04/05 08:34:50;;;;;;;4.47;2.60;;;8.90;86.00;;;;;;5015386;28;20047;-73
2023/04/05 08:37:16;;;;;;;4.40;2.17;;;9.00;85.80;;;;;;4997246;28;20047;-73
2023/04/05 08:39:42;;;;;;;5.32;2.33;;;9.10;85.20;;;;;;5031621;28;20040;-73
2023/04/05 08:42:25;;;;;;;5.28;2.33;;;9.30;84.90;;;;;;5008615;28;20040;-73
2023/04/05 08:44:51;;;;;;;7.53;2.30;;;9.50;84.10;;;;;;5033090;28;20501;-76
2023/04/05 08:47:19;;;;;;;5.45;3.28;;;9.60;83.40;;;;;;5014775;28;20028;-73
2023/04/05 08:49:45;;;;;;;3.30;2.35;;;9.70;83.50;;;;;;5036827;28;20044;-73
2023/04/05 08:52:12;;;;;;;5.40;1.80;;;9.90;83.50;;;;;;4994907;28;20048;-73
2023/04/05 08:54:38;;;;;;;5.55;2.75;;;10.00;82.50;;;;;;5014272;28;20040;-73
2023/04/05 08:57:06;;;;;;;7.28;2.85;;;10.10;81.00;;;;;;5014051;28;20056;-73
2023/04/05 08:59:36;;;;;;;6.57;2.97;;;10.10;80.90;;;;;;5013910;28;20063;-74
2023/04/05 09:02:07;;;;;;;4.65;2.38;;;10.20;80.60;;;;;;5009722;28;20870;-74
2023/04/05 09:04:43;;;;;;;4.80;2.22;;;10.20;79.00;;;;;;4996348;28;20036;-73
2023/04/05 09:07:12;;;;;;;5.78;2.35;;;10.30;76.70;;;;;;5033803;28;20024;-73
2023/04/05 09:09:41;;;;;;;3.25;1.33;;;10.30;77.90;;;;;;5034602;28;20033;-74
2023/04/05 09:12:07;;;;;;;8.50;2.70;;;10.50;78.90;;;;;;5030382;28;20040;-74
2023/04/05 09:14:35;;;;;;;4.13;2.30;;;10.70;78.30;;;;;;5017599;28;20489;-74
2023/04/05 09:17:02;;;;;;;6.03;2.50;;;10.80;78.00;;;;;;5033193;28;20403;-76
2023/04/05 09:19:29;;;;;;;4.43;2.15;;;10.80;76.10;;;;;;5033019;28;20044;-77
2023/04/05 09:22:03;;;;;;;4.65;3.05;;;10.80;75.90;;;;;;5009282;28;20030;-76
2023/04/05 09:24:40;;;;;;;4.93;2.13;;;10.80;75.70;;;;;;4999639;28;20055;-74
2023/04/05 09:27:13;;;;;;;4.75;2.67;;;10.80;75.40;;;;;;5033174;28;20032;-74
2023/04/05 09:29:45;;;;;;;3.75;2.25;;;10.70;74.10;;;;;;4997482;28;20036;-74
2023/04/05 09:32:13;;;;;;;4.75;2.45;;;10.80;74.90;;;;;;5010252;28;20040;-74
2023/04/05 09:34:40;;;;;;;4.75;1.90;;;10.90;75.10;;;;;;5016439;28;20040;-74
2023/04/05 09:37:19;;;;;;;4.93;2.03;;;11.00;75.10;;;;;;5015722;28;20031;-75
2023/04/05 09:39:48;;;;;;;4.78;2.50;;;11.10;75.20;;;;;;5016518;28;20279;-74
2023/04/05 09:42:16;;;;;;;5.65;2.58;;;11.30;75.00;;;;;;5010950;28;20064;-74
2023/04/05 09:45:03;;;;;;;3.15;1.70;;;11.30;72.70;;;;;;5014814;28;20047;-74
2023/04/05 09:47:34;;;;;;;4.97;3.30;;;11.40;73.70;;;;;;5031019;28;20425;-74
2023/04/05 09:50:18;;;;;;;6.45;2.70;;;11.50;73.00;;;;;;5016413;28;20045;-74
2023/04/05 09:52:45;;;;;;;5.10;2.53;;;11.60;73.10;;;;;;5015551;28;20033;-74
2023/04/05 09:55:12;;;;;;;3.83;2.05;;;11.70;72.30;;;;;;5004285;28;20483;-74
2023/04/05 09:57:39;;;;;;;6.53;2.63;;;11.70;72.50;;;;;;5016204;28;20037;-75
2023/04/05 10:00:17;;;;;;;4.53;2.22;;;11.70;71.70;;;;;;5033912;28;20367;-74
2023/04/05 10:02:46;;;;;;;4.57;2.47;;;11.70;71.70;;;;;;4993965;28;20052;-74
2023/04/05 10:05:14;;;;;;;5.47;2.63;;;11.80;72.00;;;;;;5035138;28;20475;-74
2023/04/05 10:07:41;;;;;;;5.20;2.70;;;11.90;72.10;;;;;;5035146;28;20040;-74
2023/04/05 10:10:09;;;;;;;5.43;2.35;;;12.10;71.40;;;;;;5034453;28;20016;-74
2023/04/05 10:12:40;;;;;;;6.22;3.30;;;12.20;69.80;;;;;;5013752;28;20048;-74
2023/04/05 10:15:08;;;;;;;5.78;3.00;;;12.20;68.50;;;;;;5020209;28;20131;-74
2023/04/05 10:17:51;;;;;;;5.13;3.05;;;12.10;68.50;;;;;;5007058;28;20049;-73
2023/04/05 10:20:20;;;;;;;4.82;2.85;;;12.20;68.80;;;;;;5025655;28;20088;-74
2023/04/05 10:23:09;;;;;;;3.90;2.42;;;12.50;69.50;;;;;;5013071;28;22696;-73
2023/04/05 10:25:50;;;;;;;5.30;2.40;;;12.70;68.50;;;;;;4985976;28;20037;-75
2023/04/05 10:28:32;;;;;;;5.47;2.83;;;12.90;67.50;;;;;;5016187;28;20032;-74
2023/04/05 10:31:07;;;;;;;7.57;5.47;;;13.20;66.90;;;;;;5014409;28;20040;-75
2023/04/05 10:33:45;;;;;;;6.90;4.05;;;13.40;65.50;;;;;;5034853;28;20032;-75
2023/04/05 10:36:11;;;;;;;5.30;3.17;;;13.80;66.10;;;;;;5038379;28;20037;-74
2023/04/05 10:38:56;;;;;;;3.75;2.08;;;14.10;65.20;;;;;;5017247;28;20041;-74
2023/04/05 10:41:23;;;;;;;3.58;2.15;;;14.20;64.10;;;;;;5033143;28;20063;-74
2023/04/05 10:43:53;;;;;;;4.35;2.80;;;14.20;63.50;;;;;;5010855;28;20048;-73
2023/04/05 10:46:21;;;;;;;4.95;2.88;;;14.50;62.40;;;;;;5035599;28;20036;-74
2023/04/05 10:49:02;;;;;;;3.95;2.28;;;14.80;63.40;;;;;;5033816;28;20040;-74
2023/04/05 10:51:29;;;;;;;6.32;2.88;;;15.30;63.30;;;;;;4997557;28;20522;-74
2023/04/05 10:53:56;;;;;;;3.90;2.35;;;15.70;62.70;;;;;;5011855;28;20049;-74
2023/04/05 10:56:24;;;;;;;5.47;2.10;;;16.00;61.90;;;;;;5008396;28;20025;-75
2023/04/05 10:58:51;;;;;;;5.28;2.65;;;16.10;60.60;;;;;;5018635;28;20404;-74
2023/04/05 11:01:20;;;;;;;6.35;2.88;;;16.50;59.50;;;;;;5012066;28;20036;-74
2023/04/05 11:03:47;;;;;;;5.82;2.33;;;16.80;59.60;;;;;;4995455;28;20047;-74
2023/04/05 11:06:31;;;;;;;3.72;2.05;;;17.30;59.30;;;;;;5035277;28;20399;-75
2023/04/05 11:09:06;;;;;;;5.47;2.67;;;17.50;58.00;;;;;;5033998;28;20494;-74
2023/04/05 11:11:38;;;;;;;5.38;3.45;;;17.40;56.60;;;;;;5034028;28;20409;-74
2023/04/05 11:14:35;;;;;;;4.88;2.92;;;17.40;56.00;;;;;;5013328;28;20037;-74
2023/04/05 11:17:02;;;;;;;5.22;2.55;;;17.60;56.30;;;;;;5006449;28;20048;-74
2023/04/05 11:19:44;;;;;;;4.57;2.38;;;18.00;55.60;;;;;;5000005;28;20048;-75
2023/04/05 11:22:12;;;;;;;5.15;1.83;;;18.40;54.70;;;;;;4992483;28;20064;-74
2023/04/05 11:24:56;;;;;;;4.80;2.95;;;18.80;54.60;;;;;;5013469;28;20391;-75
2023/04/05 11:27:27;;;;;;;6.18;3.97;;;19.10;53.20;;;;;;5012585;28;20036;-75
2023/04/05 11:29:54;;;;;;;4.63;2.90;;;19.40;52.90;;;;;;5034913;28;20378;-75
2023/04/05 11:32:22;;;;;;;8.60;5.85;;;19.60;52.70;;;;;;4990270;28;20612;-75
2023/04/05 11:34:59;;;;;;;4.97;3.03;;;20.10;52.60;;;;;;5019655;28;20067;-76
2023/04/05 11:37:54;;;;;;;3.08;2.20;;;20.50;50.10;;;;;;5039014;28;20649;-74
2023/04/05 11:40:34;;;;;;;3.53;2.30;;;20.10;47.80;;;;;;5014705;28;20040;-76
2023/04/05 11:43:07;;;;;;;4.90;2.75;;;19.90;47.70;;;;;;5028953;28;20585;-74
2023/04/05 11:45:35;;;;;;;4.28;2.30;;;20.00;47.50;;;;;;5034249;28;20044;-75
2023/04/05 11:48:06;;;;;;;3.42;2.38;;;20.00;46.90;;;;;;5034988;28;20351;-74
2023/04/05 11:50:32;;;;;;;4.47;2.08;;;20.00;46.50;;;;;;5012701;28;20044;-75
2023/04/05 11:53:16;;;;;;;3.60;1.98;;;20.30;46.30;;;;;;5007206;28;20487;-75
2023/04/05 11:55:47;;;;;;;3.47;2.22;;;20.60;44.80;;;;;;5017692;28;20037;-76
2023/04/05 11:58:15;;;;;;;4.25;1.98;;;20.40;44.50;;;;;;5018117;28;20044;-75
2023/04/05 12:00:43;;;;;;;4.05;2.40;;;20.40;45.30;;;;;;5033396;28;20040;-76
2023/04/05 12:03:15;;;;;;;3.92;2.13;;;20.70;45.20;;;;;;5028294;28;20024;-76
2023/04/05 12:05:54;;;;;;;4.07;2.15;;;21.10;45.40;;;;;;5034286;28;20048;-74
2023/04/05 12:08:21;;;;;;;3.28;2.67;;;21.60;45.40;;;;;;5018547;28;20040;-73
2023/04/05 12:10:59;;;;;;;4.40;2.65;;;22.00;44.00;;;;;;5011562;28;20072;-72
2023/04/05 12:13:26;;;;;;;4.80;1.73;;;22.10;43.80;;;;;;5030800;28;20043;-73
2023/04/05 12:15:53;;;;;;;3.85;2.30;;;22.30;43.60;;;;;;5017537;28;20047;-73
2023/04/05 12:18:20;;;;;;;2.80;2.28;;;22.40;43.20;;;;;;5038155;28;20032;-74
2023/04/05 12:20:46;;;;;;;3.03;2.42;;;22.60;43.10;;;;;;5032624;28;20056;-72
2023/04/05 12:23:13;;;;;;;3.75;2.17;;;22.90;43.90;;;;;;5008616;28;20379;-73
2023/04/05 12:25:41;;;;;;;2.92;2.15;;;23.40;44.20;;;;;;5033757;28;20039;-73
2023/04/05 12:28:07;;;;;;;3.60;1.95;;;23.90;43.80;;;;;;5034086;28;20039;-73
2023/04/05 12:30:36;;;;;;;3.88;1.58;;;24.10;43.30;;;;;;5031765;28;20025;-74
2023/04/05 12:33:08;;;;;;;3.42;1.83;;;24.30;43.00;;;;;;5009433;28;20044;-72
2023/04/05 12:35:35;;;;;;;2.72;1.77;;;24.60;41.30;;;;;;5037184;28;20021;-74
2023/04/05 12:38:06;;;;;;;4.80;2.15;;;24.90;41.70;;;;;;5020252;28;20051;-74
2023/04/05 12:40:39;;;;;;;3.63;2.33;;;25.00;40.60;;;;;;5035013;28;20048;-72
2023/04/05 12:43:08;;;;;;;2.40;2.05;;;25.10;40.80;;;;;;5007876;28;20036;-73
2023/04/05 12:45:41;;;;;;;2.45;1.75;;;25.30;39.90;;;;;;5032123;28;20032;-74
2023/04/05 12:48:09;;;;;;;3.80;1.88;;;25.50;39.60;;;;;;5012787;28;20157;-73
2023/04/05 12:50:45;;;;;;;4.60;1.92;;;25.70;40.00;;;;;;5031253;28;20036;-72
2023/04/05 12:53:20;;;;;;;2.60;1.60;;;25.70;39.80;;;;;;5006491;28;20476;-74
2023/04/05 12:55:54;;;;;;;3.53;2.50;;;25.60;38.40;;;;;;5014609;28;20044;-74
2023/04/05 12:58:33;;;;;;;4.00;2.05;;;25.50;39.20;;;;;;5037217;28;20514;-75
2023/04/05 13:00:59;;;;;;;3.83;1.70;;;25.70;38.70;;;;;;5015055;28;20485;-75
2023/04/05 13:03:26;;;;;;;2.40;1.25;;;25.90;39.00;;;;;;4991977;28;20595;-72
2023/04/05 13:05:53;;;;;;;2.20;1.55;;;26.20;38.70;;;;;;5013879;28;20033;-76
2023/04/05 13:08:19;;;;;;;3.40;1.95;;;26.30;38.60;;;;;;5034243;28;20596;-76
2023/04/05 13:10:47;;;;;;;3.55;2.28;;;26.50;38.00;;;;;;4994289;28;20964;-73